sensor_id;sensor_type;location;lat;lon;timestamp;P1;durP1;ratioP1;P2;durP2;ratioP2
18076;SDS011;9165;45.714;11.362;2022-09-21T00:00:43;1.67;;;1.00;;
18076;SDS011;9165;45.714;11.362;2022-09-21T00:03:10;3.47;;;0.90;;
18076;SDS011;9165;45.714;11.362;2022-09-21T00:05:37;1.50;;;1.00;;
18076;SDS011;9165;45.714;11.362;2022-09-21T00:08:05;2.60;;;1.30;;
18076;SDS011;9165;45.714;11.362;2022-09-21T00:10:32;2.97;;;1.43;;
18076;SDS011;9165;45.714;11.362;2022-09-21T00:12:59;1.60;;;0.83;;
18076;SDS011;9165;45.714;11.362;2022-09-21T00:15:27;2.57;;;1.10;;
18076;SDS011;9165;45.714;11.362;2022-09-21T00:17:54;1.20;;;1.10;;
18076;SDS011;9165;45.714;11.362;2022-09-21T00:20:21;2.77;;;0.90;;
18076;SDS011;9165;45.714;11.362;2022-09-21T00:22:48;1.30;;;1.20;;
18076;SDS011;9165;45.714;11.362;2022-09-21T00:25:17;1.77;;;1.00;;
18076;SDS011;9165;45.714;11.362;2022-09-21T00:27:44;2.40;;;0.70;;
18076;SDS011;9165;45.714;11.362;2022-09-21T00:30:15;2.33;;;1.10;;
18076;SDS011;9165;45.714;11.362;2022-09-21T00:32:42;1.10;;;1.00;;
18076;SDS011;9165;45.714;11.362;2022-09-21T00:35:09;1.33;;;0.97;;
18076;SDS011;9165;45.714;11.362;2022-09-21T00:37:35;6.93;;;1.40;;
18076;SDS011;9165;45.714;11.362;2022-09-21T00:40:02;1.87;;;1.30;;
18076;SDS011;9165;45.714;11.362;2022-09-21T00:42:31;2.17;;;1.03;;
18076;SDS011;9165;45.714;11.362;2022-09-21T00:44:58;1.53;;;1.10;;
18076;SDS011;9165;45.714;11.362;2022-09-21T00:47:25;0.80;;;0.80;;
18076;SDS011;9165;45.714;11.362;2022-09-21T00:49:53;2.20;;;1.60;;
18076;SDS011;9165;45.714;11.362;2022-09-21T00:52:21;0.77;;;0.77;;
18076;SDS011;9165;45.714;11.362;2022-09-21T00:54:50;3.67;;;0.80;;
18076;SDS011;9165;45.714;11.362;2022-09-21T00:57:17;0.90;;;0.80;;
18076;SDS011;9165;45.714;11.362;2022-09-21T00:59:47;0.97;;;0.90;;
18076;SDS011;9165;45.714;11.362;2022-09-21T01:02:14;1.13;;;0.90;;
18076;SDS011;9165;45.714;11.362;2022-09-21T01:04:41;1.43;;;0.87;;
18076;SDS011;9165;45.714;11.362;2022-09-21T01:07:08;2.97;;;1.07;;
18076;SDS011;9165;45.714;11.362;2022-09-21T01:09:37;3.03;;;1.10;;
18076;SDS011;9165;45.714;11.362;2022-09-21T01:12:07;3.40;;;1.03;;
18076;SDS011;9165;45.714;11.362;2022-09-21T01:14:44;2.40;;;1.00;;
18076;SDS011;9165;45.714;11.362;2022-09-21T01:17:15;1.30;;;1.20;;
18076;SDS011;9165;45.714;11.362;2022-09-21T01:19:49;0.97;;;0.90;;
18076;SDS011;9165;45.714;11.362;2022-09-21T01:22:20;3.00;;;0.87;;
18076;SDS011;9165;45.714;11.362;2022-09-21T01:24:51;5.00;;;1.17;;
18076;SDS011;9165;45.714;11.362;2022-09-21T01:27:33;1.13;;;1.03;;
18076;SDS011;9165;45.714;11.362;2022-09-21T01:30:05;1.17;;;1.07;;
18076;SDS011;9165;45.714;11.362;2022-09-21T01:32:33;1.13;;;1.03;;
18076;SDS011;9165;45.714;11.362;2022-09-21T01:35:03;3.80;;;1.30;;
18076;SDS011;9165;45.714;11.362;2022-09-21T01:37:32;1.37;;;1.10;;
18076;SDS011;9165;45.714;11.362;2022-09-21T01:40:02;1.03;;;0.90;;
18076;SDS011;9165;45.714;11.362;2022-09-21T01:42:30;1.27;;;1.00;;
18076;SDS011;9165;45.714;11.362;2022-09-21T01:44:58;1.47;;;0.90;;
18076;SDS011;9165;45.714;11.362;2022-09-21T01:47:27;2.10;;;0.97;;
18076;SDS011;9165;45.714;11.362;2022-09-21T01:49:55;1.50;;;1.20;;
18076;SDS011;9165;45.714;11.362;2022-09-21T01:52:26;1.30;;;1.00;;
18076;SDS011;9165;45.714;11.362;2022-09-21T01:54:56;1.20;;;0.80;;
18076;SDS011;9165;45.714;11.362;2022-09-21T01:57:25;2.80;;;0.90;;
18076;SDS011;9165;45.714;11.362;2022-09-21T01:59:53;1.30;;;1.00;;
18076;SDS011;9165;45.714;11.362;2022-09-21T02:02:22;1.10;;;1.00;;
18076;SDS011;9165;45.714;11.362;2022-09-21T02:04:51;2.63;;;1.23;;
18076;SDS011;9165;45.714;11.362;2022-09-21T02:07:18;0.80;;;0.80;;
18076;SDS011;9165;45.714;11.362;2022-09-21T02:09:44;0.93;;;0.90;;
18076;SDS011;9165;45.714;11.362;2022-09-21T02:12:12;1.03;;;0.70;;
18076;SDS011;9165;45.714;11.362;2022-09-21T02:14:39;0.80;;;0.80;;
18076;SDS011;9165;45.714;11.362;2022-09-21T02:17:10;0.83;;;0.77;;
18076;SDS011;9165;45.714;11.362;2022-09-21T02:19:43;1.33;;;1.03;;
18076;SDS011;9165;45.714;11.362;2022-09-21T02:22:12;0.80;;;0.80;;
18076;SDS011;9165;45.714;11.362;2022-09-21T02:24:41;0.70;;;0.70;;
18076;SDS011;9165;45.714;11.362;2022-09-21T02:27:11;2.10;;;1.53;;
18076;SDS011;9165;45.714;11.362;2022-09-21T02:29:42;12.00;;;1.30;;
18076;SDS011;9165;45.714;11.362;2022-09-21T02:32:11;1.00;;;0.90;;
18076;SDS011;9165;45.714;11.362;2022-09-21T02:34:41;1.40;;;1.07;;
18076;SDS011;9165;45.714;11.362;2022-09-21T02:37:10;1.43;;;0.90;;
18076;SDS011;9165;45.714;11.362;2022-09-21T02:39:46;2.37;;;0.87;;
18076;SDS011;9165;45.714;11.362;2022-09-21T02:42:15;1.00;;;0.90;;
18076;SDS011;9165;45.714;11.362;2022-09-21T02:44:45;2.40;;;1.03;;
18076;SDS011;9165;45.714;11.362;2022-09-21T02:47:13;1.33;;;1.10;;
18076;SDS011;9165;45.714;11.362;2022-09-21T02:49:43;2.43;;;1.20;;
18076;SDS011;9165;45.714;11.362;2022-09-21T02:52:12;1.43;;;0.90;;
18076;SDS011;9165;45.714;11.362;2022-09-21T02:54:40;1.30;;;0.83;;
18076;SDS011;9165;45.714;11.362;2022-09-21T02:57:10;1.03;;;0.80;;
18076;SDS011;9165;45.714;11.362;2022-09-21T02:59:37;0.97;;;0.77;;
18076;SDS011;9165;45.714;11.362;2022-09-21T03:02:03;2.37;;;0.80;;
18076;SDS011;9165;45.714;11.362;2022-09-21T03:04:31;0.70;;;0.70;;
18076;SDS011;9165;45.714;11.362;2022-09-21T03:06:58;1.10;;;0.80;;
18076;SDS011;9165;45.714;11.362;2022-09-21T03:09:24;0.97;;;0.73;;
18076;SDS011;9165;45.714;11.362;2022-09-21T03:11:51;2.20;;;1.10;;
18076;SDS011;9165;45.714;11.362;2022-09-21T03:14:19;0.83;;;0.80;;
18076;SDS011;9165;45.714;11.362;2022-09-21T03:16:47;0.83;;;0.83;;
18076;SDS011;9165;45.714;11.362;2022-09-21T03:19:13;1.03;;;0.80;;
18076;SDS011;9165;45.714;11.362;2022-09-21T03:21:40;1.30;;;0.90;;
18076;SDS011;9165;45.714;11.362;2022-09-21T03:24:06;3.03;;;0.90;;
18076;SDS011;9165;45.714;11.362;2022-09-21T03:26:33;0.77;;;0.77;;
18076;SDS011;9165;45.714;11.362;2022-09-21T03:28:59;4.03;;;0.97;;
18076;SDS011;9165;45.714;11.362;2022-09-21T03:31:29;1.63;;;0.93;;
18076;SDS011;9165;45.714;11.362;2022-09-21T03:33:56;3.53;;;0.80;;
18076;SDS011;9165;45.714;11.362;2022-09-21T03:36:23;1.10;;;0.90;;
18076;SDS011;9165;45.714;11.362;2022-09-21T03:38:49;2.93;;;0.80;;
18076;SDS011;9165;45.714;11.362;2022-09-21T03:41:16;1.43;;;1.30;;
18076;SDS011;9165;45.714;11.362;2022-09-21T03:43:43;0.90;;;0.90;;
18076;SDS011;9165;45.714;11.362;2022-09-21T03:46:10;1.73;;;0.90;;
18076;SDS011;9165;45.714;11.362;2022-09-21T03:48:38;0.70;;;0.70;;
18076;SDS011;9165;45.714;11.362;2022-09-21T03:51:06;3.77;;;0.87;;
18076;SDS011;9165;45.714;11.362;2022-09-21T03:53:33;2.83;;;0.80;;
18076;SDS011;9165;45.714;11.362;2022-09-21T03:56:00;3.47;;;1.10;;
18076;SDS011;9165;45.714;11.362;2022-09-21T03:58:26;1.00;;;1.00;;
18076;SDS011;9165;45.714;11.362;2022-09-21T04:00:53;1.33;;;0.90;;
18076;SDS011;9165;45.714;11.362;2022-09-21T04:03:19;1.67;;;0.90;;
18076;SDS011;9165;45.714;11.362;2022-09-21T04:05:47;2.20;;;0.80;;
18076;SDS011;9165;45.714;11.362;2022-09-21T04:08:14;1.10;;;0.87;;
18076;SDS011;9165;45.714;11.362;2022-09-21T04:10:41;2.10;;;1.23;;
18076;SDS011;9165;45.714;11.362;2022-09-21T04:13:07;1.30;;;1.20;;
18076;SDS011;9165;45.714;11.362;2022-09-21T04:15:34;1.00;;;0.90;;
18076;SDS011;9165;45.714;11.362;2022-09-21T04:18:00;1.13;;;0.73;;
18076;SDS011;9165;45.714;11.362;2022-09-21T04:20:27;2.03;;;1.03;;
18076;SDS011;9165;45.714;11.362;2022-09-21T04:22:55;2.90;;;1.00;;
18076;SDS011;9165;45.714;11.362;2022-09-21T04:25:22;1.00;;;0.90;;
18076;SDS011;9165;45.714;11.362;2022-09-21T04:27:48;2.30;;;0.93;;
18076;SDS011;9165;45.714;11.362;2022-09-21T04:30:16;2.40;;;0.97;;
18076;SDS011;9165;45.714;11.362;2022-09-21T04:32:43;2.30;;;0.90;;
18076;SDS011;9165;45.714;11.362;2022-09-21T04:35:09;3.67;;;1.00;;
18076;SDS011;9165;45.714;11.362;2022-09-21T04:37:36;6.63;;;1.20;;
18076;SDS011;9165;45.714;11.362;2022-09-21T04:40:05;5.13;;;1.10;;
18076;SDS011;9165;45.714;11.362;2022-09-21T04:42:32;1.00;;;0.83;;
18076;SDS011;9165;45.714;11.362;2022-09-21T04:44:58;0.80;;;0.80;;
18076;SDS011;9165;45.714;11.362;2022-09-21T04:47:25;3.20;;;1.17;;
18076;SDS011;9165;45.714;11.362;2022-09-21T04:49:52;1.33;;;1.10;;
18076;SDS011;9165;45.714;11.362;2022-09-21T04:52:19;1.47;;;0.90;;
18076;SDS011;9165;45.714;11.362;2022-09-21T04:54:45;0.70;;;0.70;;
18076;SDS011;9165;45.714;11.362;2022-09-21T04:57:15;1.73;;;1.10;;
18076;SDS011;9165;45.714;11.362;2022-09-21T04:59:42;1.23;;;1.10;;
18076;SDS011;9165;45.714;11.362;2022-09-21T05:02:08;1.00;;;0.90;;
18076;SDS011;9165;45.714;11.362;2022-09-21T05:04:39;1.80;;;0.80;;
18076;SDS011;9165;45.714;11.362;2022-09-21T05:07:09;1.37;;;1.03;;
18076;SDS011;9165;45.714;11.362;2022-09-21T05:09:35;2.83;;;0.87;;
18076;SDS011;9165;45.714;11.362;2022-09-21T05:12:20;1.20;;;1.00;;
18076;SDS011;9165;45.714;11.362;2022-09-21T05:14:48;1.63;;;0.80;;
18076;SDS011;9165;45.714;11.362;2022-09-21T05:17:15;2.20;;;1.17;;
18076;SDS011;9165;45.714;11.362;2022-09-21T05:19:41;0.87;;;0.87;;
18076;SDS011;9165;45.714;11.362;2022-09-21T05:22:08;2.07;;;0.90;;
18076;SDS011;9165;45.714;11.362;2022-09-21T05:24:35;1.47;;;0.90;;
18076;SDS011;9165;45.714;11.362;2022-09-21T05:27:03;1.40;;;0.80;;
18076;SDS011;9165;45.714;11.362;2022-09-21T05:29:39;1.03;;;0.80;;
18076;SDS011;9165;45.714;11.362;2022-09-21T05:32:07;3.37;;;0.87;;
18076;SDS011;9165;45.714;11.362;2022-09-21T05:34:41;3.83;;;1.03;;
18076;SDS011;9165;45.714;11.362;2022-09-21T05:37:18;1.77;;;1.10;;
18076;SDS011;9165;45.714;11.362;2022-09-21T05:39:54;1.40;;;1.00;;
18076;SDS011;9165;45.714;11.362;2022-09-21T05:42:21;5.00;;;0.80;;
18076;SDS011;9165;45.714;11.362;2022-09-21T05:44:53;1.63;;;1.10;;
18076;SDS011;9165;45.714;11.362;2022-09-21T05:47:22;0.80;;;0.80;;
18076;SDS011;9165;45.714;11.362;2022-09-21T05:49:54;1.13;;;1.00;;
18076;SDS011;9165;45.714;11.362;2022-09-21T05:52:24;1.53;;;1.00;;
18076;SDS011;9165;45.714;11.362;2022-09-21T05:54:58;0.90;;;0.63;;
18076;SDS011;9165;45.714;11.362;2022-09-21T05:57:27;1.20;;;1.10;;
18076;SDS011;9165;45.714;11.362;2022-09-21T06:00:08;1.30;;;0.90;;
18076;SDS011;9165;45.714;11.362;2022-09-21T06:02:44;2.50;;;1.30;;
18076;SDS011;9165;45.714;11.362;2022-09-21T06:05:16;4.27;;;1.10;;
18076;SDS011;9165;45.714;11.362;2022-09-21T06:07:45;1.30;;;1.00;;
18076;SDS011;9165;45.714;11.362;2022-09-21T06:10:12;4.73;;;1.33;;
18076;SDS011;9165;45.714;11.362;2022-09-21T06:12:39;1.73;;;1.30;;
18076;SDS011;9165;45.714;11.362;2022-09-21T06:15:10;2.97;;;1.80;;
18076;SDS011;9165;45.714;11.362;2022-09-21T06:17:38;1.07;;;0.90;;
18076;SDS011;9165;45.714;11.362;2022-09-21T06:20:08;1.00;;;0.80;;
18076;SDS011;9165;45.714;11.362;2022-09-21T06:22:37;4.27;;;0.90;;
18076;SDS011;9165;45.714;11.362;2022-09-21T06:25:04;1.57;;;1.00;;
18076;SDS011;9165;45.714;11.362;2022-09-21T06:27:30;0.83;;;0.80;;
18076;SDS011;9165;45.714;11.362;2022-09-21T06:29:57;1.20;;;1.03;;
18076;SDS011;9165;45.714;11.362;2022-09-21T06:32:28;3.10;;;1.20;;
18076;SDS011;9165;45.714;11.362;2022-09-21T06:34:55;1.07;;;0.90;;
18076;SDS011;9165;45.714;11.362;2022-09-21T06:37:23;1.90;;;1.10;;
18076;SDS011;9165;45.714;11.362;2022-09-21T06:39:52;1.07;;;1.00;;
18076;SDS011;9165;45.714;11.362;2022-09-21T06:42:18;2.83;;;1.03;;
18076;SDS011;9165;45.714;11.362;2022-09-21T06:44:45;1.17;;;1.00;;
18076;SDS011;9165;45.714;11.362;2022-09-21T06:47:12;4.30;;;0.87;;
18076;SDS011;9165;45.714;11.362;2022-09-21T06:49:39;2.27;;;0.90;;
18076;SDS011;9165;45.714;11.362;2022-09-21T06:52:06;2.80;;;1.47;;
18076;SDS011;9165;45.714;11.362;2022-09-21T06:54:32;4.17;;;0.90;;
18076;SDS011;9165;45.714;11.362;2022-09-21T06:56:59;7.93;;;1.20;;
18076;SDS011;9165;45.714;11.362;2022-09-21T06:59:27;4.63;;;1.20;;
18076;SDS011;9165;45.714;11.362;2022-09-21T07:01:53;21.50;;;10.13;;
18076;SDS011;9165;45.714;11.362;2022-09-21T07:04:22;7.03;;;2.87;;
18076;SDS011;9165;45.714;11.362;2022-09-21T07:06:51;2.50;;;1.97;;
18076;SDS011;9165;45.714;11.362;2022-09-21T07:09:17;8.83;;;2.00;;
18076;SDS011;9165;45.714;11.362;2022-09-21T07:11:44;2.37;;;1.23;;
18076;SDS011;9165;45.714;11.362;2022-09-21T07:14:11;0.87;;;0.83;;
18076;SDS011;9165;45.714;11.362;2022-09-21T07:16:39;2.70;;;1.03;;
18076;SDS011;9165;45.714;11.362;2022-09-21T07:19:08;2.67;;;1.60;;
18076;SDS011;9165;45.714;11.362;2022-09-21T07:21:35;0.80;;;0.80;;
18076;SDS011;9165;45.714;11.362;2022-09-21T07:24:03;2.73;;;1.97;;
18076;SDS011;9165;45.714;11.362;2022-09-21T07:26:29;3.47;;;1.60;;
18076;SDS011;9165;45.714;11.362;2022-09-21T07:28:58;2.20;;;1.40;;
18076;SDS011;9165;45.714;11.362;2022-09-21T07:31:25;1.10;;;1.00;;
18076;SDS011;9165;45.714;11.362;2022-09-21T07:33:55;2.93;;;0.73;;
18076;SDS011;9165;45.714;11.362;2022-09-21T07:36:21;1.93;;;0.77;;
18076;SDS011;9165;45.714;11.362;2022-09-21T07:38:50;2.53;;;1.00;;
18076;SDS011;9165;45.714;11.362;2022-09-21T07:41:21;1.33;;;0.90;;
18076;SDS011;9165;45.714;11.362;2022-09-21T07:43:48;1.33;;;0.83;;
18076;SDS011;9165;45.714;11.362;2022-09-21T07:46:14;2.20;;;1.00;;
18076;SDS011;9165;45.714;11.362;2022-09-21T07:48:41;3.53;;;1.13;;
18076;SDS011;9165;45.714;11.362;2022-09-21T07:51:11;1.53;;;1.13;;
18076;SDS011;9165;45.714;11.362;2022-09-21T07:53:39;2.00;;;1.07;;
18076;SDS011;9165;45.714;11.362;2022-09-21T07:56:06;1.20;;;0.90;;
18076;SDS011;9165;45.714;11.362;2022-09-21T07:58:35;4.47;;;1.17;;
18076;SDS011;9165;45.714;11.362;2022-09-21T08:01:22;2.07;;;1.03;;
18076;SDS011;9165;45.714;11.362;2022-09-21T08:03:50;1.43;;;0.90;;
18076;SDS011;9165;45.714;11.362;2022-09-21T08:06:17;3.77;;;1.00;;
18076;SDS011;9165;45.714;11.362;2022-09-21T08:08:44;1.93;;;1.20;;
18076;SDS011;9165;45.714;11.362;2022-09-21T08:11:14;9.60;;;5.27;;
18076;SDS011;9165;45.714;11.362;2022-09-21T08:13:42;1.53;;;1.27;;
18076;SDS011;9165;45.714;11.362;2022-09-21T08:16:12;2.80;;;1.20;;
18076;SDS011;9165;45.714;11.362;2022-09-21T08:18:38;1.07;;;0.97;;
18076;SDS011;9165;45.714;11.362;2022-09-21T08:21:08;1.67;;;1.50;;
18076;SDS011;9165;45.714;11.362;2022-09-21T08:23:35;1.50;;;1.07;;
18076;SDS011;9165;45.714;11.362;2022-09-21T08:26:07;1.10;;;1.00;;
18076;SDS011;9165;45.714;11.362;2022-09-21T08:28:37;4.97;;;1.10;;
18076;SDS011;9165;45.714;11.362;2022-09-21T08:31:06;4.70;;;1.40;;
18076;SDS011;9165;45.714;11.362;2022-09-21T08:33:36;0.80;;;0.80;;
18076;SDS011;9165;45.714;11.362;2022-09-21T08:36:04;6.00;;;0.97;;
18076;SDS011;9165;45.714;11.362;2022-09-21T08:38:32;1.80;;;1.33;;
18076;SDS011;9165;45.714;11.362;2022-09-21T08:40:58;0.77;;;0.77;;
18076;SDS011;9165;45.714;11.362;2022-09-21T08:43:28;1.20;;;0.73;;
18076;SDS011;9165;45.714;11.362;2022-09-21T08:45:57;1.73;;;0.90;;
18076;SDS011;9165;45.714;11.362;2022-09-21T08:48:27;2.73;;;1.43;;
18076;SDS011;9165;45.714;11.362;2022-09-21T08:50:56;0.90;;;0.90;;
18076;SDS011;9165;45.714;11.362;2022-09-21T08:53:27;9.40;;;1.50;;
18076;SDS011;9165;45.714;11.362;2022-09-21T08:55:58;4.00;;;0.80;;
18076;SDS011;9165;45.714;11.362;2022-09-21T08:58:25;3.13;;;0.90;;
18076;SDS011;9165;45.714;11.362;2022-09-21T09:01:00;1.80;;;0.93;;
18076;SDS011;9165;45.714;11.362;2022-09-21T09:03:37;5.23;;;2.50;;
18076;SDS011;9165;45.714;11.362;2022-09-21T09:06:08;12.40;;;9.07;;
18076;SDS011;9165;45.714;11.362;2022-09-21T09:08:45;1.90;;;1.10;;
18076;SDS011;9165;45.714;11.362;2022-09-21T09:11:26;1.00;;;0.90;;
18076;SDS011;9165;45.714;11.362;2022-09-21T09:16:46;1.50;;;1.10;;
18076;SDS011;9165;45.714;11.362;2022-09-21T09:19:23;1.60;;;1.10;;
18076;SDS011;9165;45.714;11.362;2022-09-21T09:21:55;2.17;;;1.13;;
18076;SDS011;9165;45.714;11.362;2022-09-21T09:24:28;0.93;;;0.93;;
18076;SDS011;9165;45.714;11.362;2022-09-21T09:26:56;2.10;;;0.80;;
18076;SDS011;9165;45.714;11.362;2022-09-21T09:29:28;2.33;;;0.97;;
18076;SDS011;9165;45.714;11.362;2022-09-21T09:31:58;1.23;;;0.80;;
18076;SDS011;9165;45.714;11.362;2022-09-21T09:34:31;0.93;;;0.73;;
18076;SDS011;9165;45.714;11.362;2022-09-21T09:37:00;3.90;;;3.13;;
18076;SDS011;9165;45.714;11.362;2022-09-21T09:39:33;3.53;;;2.87;;
18076;SDS011;9165;45.714;11.362;2022-09-21T09:42:10;1.13;;;1.00;;
18076;SDS011;9165;45.714;11.362;2022-09-21T09:44:48;3.67;;;1.00;;
18076;SDS011;9165;45.714;11.362;2022-09-21T09:47:23;2.40;;;0.97;;
18076;SDS011;9165;45.714;11.362;2022-09-21T09:49:58;1.40;;;1.23;;
18076;SDS011;9165;45.714;11.362;2022-09-21T09:52:26;2.03;;;1.40;;
18076;SDS011;9165;45.714;11.362;2022-09-21T09:54:55;16.17;;;1.53;;
18076;SDS011;9165;45.714;11.362;2022-09-21T09:57:27;2.93;;;0.93;;
18076;SDS011;9165;45.714;11.362;2022-09-21T09:59:54;3.10;;;1.00;;
18076;SDS011;9165;45.714;11.362;2022-09-21T10:02:24;1.37;;;1.13;;
18076;SDS011;9165;45.714;11.362;2022-09-21T10:04:55;1.00;;;0.90;;
18076;SDS011;9165;45.714;11.362;2022-09-21T10:07:36;1.00;;;0.90;;
18076;SDS011;9165;45.714;11.362;2022-09-21T10:10:20;3.27;;;1.10;;
18076;SDS011;9165;45.714;11.362;2022-09-21T10:12:47;2.87;;;0.93;;
18076;SDS011;9165;45.714;11.362;2022-09-21T10:15:15;0.83;;;0.83;;
18076;SDS011;9165;45.714;11.362;2022-09-21T10:17:45;3.53;;;1.07;;
18076;SDS011;9165;45.714;11.362;2022-09-21T10:20:16;2.50;;;0.90;;
18076;SDS011;9165;45.714;11.362;2022-09-21T10:22:48;1.43;;;0.93;;
18076;SDS011;9165;45.714;11.362;2022-09-21T10:25:20;4.90;;;1.03;;
18076;SDS011;9165;45.714;11.362;2022-09-21T10:27:49;1.13;;;1.00;;
18076;SDS011;9165;45.714;11.362;2022-09-21T10:33:17;4.10;;;0.93;;
18076;SDS011;9165;45.714;11.362;2022-09-21T10:35:47;2.60;;;1.10;;
18076;SDS011;9165;45.714;11.362;2022-09-21T10:38:16;1.53;;;0.87;;
18076;SDS011;9165;45.714;11.362;2022-09-21T10:40:43;1.00;;;0.80;;
18076;SDS011;9165;45.714;11.362;2022-09-21T10:43:22;1.00;;;0.90;;
18076;SDS011;9165;45.714;11.362;2022-09-21T10:45:52;4.20;;;2.03;;
18076;SDS011;9165;45.714;11.362;2022-09-21T10:48:22;3.13;;;1.43;;
18076;SDS011;9165;45.714;11.362;2022-09-21T10:50:49;1.33;;;0.97;;
18076;SDS011;9165;45.714;11.362;2022-09-21T10:53:21;1.73;;;1.00;;
18076;SDS011;9165;45.714;11.362;2022-09-21T10:55:51;5.83;;;4.00;;
18076;SDS011;9165;45.714;11.362;2022-09-21T10:58:18;1.50;;;1.00;;
18076;SDS011;9165;45.714;11.362;2022-09-21T11:00:45;1.40;;;0.73;;
18076;SDS011;9165;45.714;11.362;2022-09-21T11:03:30;4.40;;;1.23;;
18076;SDS011;9165;45.714;11.362;2022-09-21T11:06:01;2.70;;;1.33;;
18076;SDS011;9165;45.714;11.362;2022-09-21T11:08:34;1.83;;;1.00;;
18076;SDS011;9165;45.714;11.362;2022-09-21T11:11:05;1.27;;;1.00;;
18076;SDS011;9165;45.714;11.362;2022-09-21T11:13:35;1.37;;;1.27;;
18076;SDS011;9165;45.714;11.362;2022-09-21T11:16:09;5.07;;;1.10;;
18076;SDS011;9165;45.714;11.362;2022-09-21T11:18:39;1.40;;;1.20;;
18076;SDS011;9165;45.714;11.362;2022-09-21T11:21:12;2.73;;;1.50;;
18076;SDS011;9165;45.714;11.362;2022-09-21T11:23:48;1.30;;;1.10;;
18076;SDS011;9165;45.714;11.362;2022-09-21T11:26:24;3.37;;;2.20;;
18076;SDS011;9165;45.714;11.362;2022-09-21T11:28:56;2.53;;;2.00;;
18076;SDS011;9165;45.714;11.362;2022-09-21T11:31:32;1.40;;;1.30;;
18076;SDS011;9165;45.714;11.362;2022-09-21T11:34:10;2.40;;;1.13;;
18076;SDS011;9165;45.714;11.362;2022-09-21T11:36:42;2.07;;;1.40;;
18076;SDS011;9165;45.714;11.362;2022-09-21T11:39:13;1.30;;;0.93;;
18076;SDS011;9165;45.714;11.362;2022-09-21T11:41:52;3.07;;;0.90;;
18076;SDS011;9165;45.714;11.362;2022-09-21T11:44:34;1.43;;;0.80;;
18076;SDS011;9165;45.714;11.362;2022-09-21T11:47:08;1.53;;;0.93;;
18076;SDS011;9165;45.714;11.362;2022-09-21T11:49:50;4.03;;;1.00;;
18076;SDS011;9165;45.714;11.362;2022-09-21T11:52:27;0.77;;;0.60;;
18076;SDS011;9165;45.714;11.362;2022-09-21T11:57:50;0.70;;;0.70;;
18076;SDS011;9165;45.714;11.362;2022-09-21T12:00:19;1.07;;;0.97;;
18076;SDS011;9165;45.714;11.362;2022-09-21T12:03:02;9.67;;;1.17;;
18076;SDS011;9165;45.714;11.362;2022-09-21T12:05:34;1.47;;;1.00;;
18076;SDS011;9165;45.714;11.362;2022-09-21T12:08:09;1.37;;;0.87;;
18076;SDS011;9165;45.714;11.362;2022-09-21T12:10:42;2.93;;;1.20;;
18076;SDS011;9165;45.714;11.362;2022-09-21T12:13:16;13.83;;;1.47;;
18076;SDS011;9165;45.714;11.362;2022-09-21T12:15:48;2.53;;;1.13;;
18076;SDS011;9165;45.714;11.362;2022-09-21T12:18:18;1.90;;;1.10;;
18076;SDS011;9165;45.714;11.362;2022-09-21T12:20:47;3.07;;;0.97;;
18076;SDS011;9165;45.714;11.362;2022-09-21T12:23:16;2.10;;;1.93;;
18076;SDS011;9165;45.714;11.362;2022-09-21T12:25:46;68.40;;;53.10;;
18076;SDS011;9165;45.714;11.362;2022-09-21T12:28:19;54.50;;;43.00;;
18076;SDS011;9165;45.714;11.362;2022-09-21T12:30:49;28.23;;;19.80;;
18076;SDS011;9165;45.714;11.362;2022-09-21T12:33:19;40.37;;;27.97;;
18076;SDS011;9165;45.714;11.362;2022-09-21T12:35:48;9.67;;;6.70;;
18076;SDS011;9165;45.714;11.362;2022-09-21T12:38:16;14.53;;;9.27;;
18076;SDS011;9165;45.714;11.362;2022-09-21T12:40:46;6.03;;;4.37;;
18076;SDS011;9165;45.714;11.362;2022-09-21T12:43:21;2.10;;;1.23;;
18076;SDS011;9165;45.714;11.362;2022-09-21T12:45:52;2.97;;;2.13;;
18076;SDS011;9165;45.714;11.362;2022-09-21T12:48:23;3.40;;;1.17;;
18076;SDS011;9165;45.714;11.362;2022-09-21T12:50:53;3.93;;;1.53;;
18076;SDS011;9165;45.714;11.362;2022-09-21T12:53:22;2.07;;;1.53;;
18076;SDS011;9165;45.714;11.362;2022-09-21T12:55:51;4.77;;;1.50;;
18076;SDS011;9165;45.714;11.362;2022-09-21T12:58:29;4.23;;;1.80;;
18076;SDS011;9165;45.714;11.362;2022-09-21T13:01:04;3.77;;;1.30;;
18076;SDS011;9165;45.714;11.362;2022-09-21T13:03:34;4.07;;;1.20;;
18076;SDS011;9165;45.714;11.362;2022-09-21T13:06:12;674.87;;;616.17;;
18076;SDS011;9165;45.714;11.362;2022-09-21T13:08:41;2.20;;;1.10;;
18076;SDS011;9165;45.714;11.362;2022-09-21T13:11:09;943.70;;;865.10;;
18076;SDS011;9165;45.714;11.362;2022-09-21T13:13:38;1226.30;;;999.90;;
18076;SDS011;9165;45.714;11.362;2022-09-21T13:16:05;1269.97;;;999.90;;
18076;SDS011;9165;45.714;11.362;2022-09-21T13:18:33;894.20;;;812.90;;
18076;SDS011;9165;45.714;11.362;2022-09-21T13:21:00;1247.30;;;999.90;;
18076;SDS011;9165;45.714;11.362;2022-09-21T13:23:39;720.53;;;655.20;;
18076;SDS011;9165;45.714;11.362;2022-09-21T13:26:07;1020.73;;;931.30;;
18076;SDS011;9165;45.714;11.362;2022-09-21T13:28:58;1258.73;;;999.90;;
18076;SDS011;9165;45.714;11.362;2022-09-21T13:31:30;683.67;;;619.90;;
18076;SDS011;9165;45.714;11.362;2022-09-21T13:34:05;5.07;;;1.10;;
18076;SDS011;9165;45.714;11.362;2022-09-21T13:36:33;1.73;;;1.07;;
18076;SDS011;9165;45.714;11.362;2022-09-21T13:39:13;2.13;;;1.13;;
18076;SDS011;9165;45.714;11.362;2022-09-21T13:41:41;1.20;;;1.00;;
18076;SDS011;9165;45.714;11.362;2022-09-21T13:44:18;1.17;;;0.90;;
18076;SDS011;9165;45.714;11.362;2022-09-21T13:46:47;3.23;;;0.83;;
18076;SDS011;9165;45.714;11.362;2022-09-21T13:49:22;1.80;;;0.90;;
18076;SDS011;9165;45.714;11.362;2022-09-21T13:51:54;1.87;;;1.10;;
18076;SDS011;9165;45.714;11.362;2022-09-21T13:54:23;1.37;;;0.90;;
18076;SDS011;9165;45.714;11.362;2022-09-21T13:56:57;25.43;;;5.20;;
18076;SDS011;9165;45.714;11.362;2022-09-21T13:59:27;3.23;;;1.60;;
18076;SDS011;9165;45.714;11.362;2022-09-21T14:01:54;2.20;;;0.90;;
18076;SDS011;9165;45.714;11.362;2022-09-21T14:04:23;7.83;;;2.27;;
18076;SDS011;9165;45.714;11.362;2022-09-21T14:06:51;13.23;;;4.10;;
18076;SDS011;9165;45.714;11.362;2022-09-21T14:09:21;110.17;;;25.97;;
18076;SDS011;9165;45.714;11.362;2022-09-21T14:11:52;9.00;;;3.17;;
18076;SDS011;9165;45.714;11.362;2022-09-21T14:14:22;11.07;;;3.00;;
18076;SDS011;9165;45.714;11.362;2022-09-21T14:16:55;2.80;;;1.67;;
18076;SDS011;9165;45.714;11.362;2022-09-21T14:27:35;8.30;;;3.70;;
18076;SDS011;9165;45.714;11.362;2022-09-21T14:30:13;4.23;;;1.63;;
18076;SDS011;9165;45.714;11.362;2022-09-21T14:32:45;5.10;;;1.93;;
18076;SDS011;9165;45.714;11.362;2022-09-21T14:35:17;1.17;;;1.07;;
18076;SDS011;9165;45.714;11.362;2022-09-21T14:37:45;25.27;;;18.67;;
18076;SDS011;9165;45.714;11.362;2022-09-21T14:40:16;3.37;;;1.10;;
18076;SDS011;9165;45.714;11.362;2022-09-21T14:42:43;2.77;;;1.00;;
18076;SDS011;9165;45.714;11.362;2022-09-21T14:45:13;3.00;;;1.97;;
18076;SDS011;9165;45.714;11.362;2022-09-21T14:47:53;3.67;;;2.57;;
18076;SDS011;9165;45.714;11.362;2022-09-21T14:50:29;2.00;;;1.50;;
18076;SDS011;9165;45.714;11.362;2022-09-21T14:53:06;3.10;;;1.33;;
18076;SDS011;9165;45.714;11.362;2022-09-21T14:55:41;2.73;;;2.50;;
18076;SDS011;9165;45.714;11.362;2022-09-21T14:58:15;12.03;;;9.33;;
18076;SDS011;9165;45.714;11.362;2022-09-21T15:00:45;6.03;;;3.97;;
18076;SDS011;9165;45.714;11.362;2022-09-21T15:03:29;3.33;;;2.30;;
18076;SDS011;9165;45.714;11.362;2022-09-21T15:06:00;2.23;;;1.07;;
18076;SDS011;9165;45.714;11.362;2022-09-21T15:08:49;1.63;;;1.10;;
18076;SDS011;9165;45.714;11.362;2022-09-21T15:11:40;3.07;;;1.33;;
18076;SDS011;9165;45.714;11.362;2022-09-21T15:14:19;14.07;;;1.80;;
18076;SDS011;9165;45.714;11.362;2022-09-21T15:16:50;3.07;;;2.77;;
18076;SDS011;9165;45.714;11.362;2022-09-21T15:19:22;8.77;;;2.87;;